createdAt,value
2023-04-02T00:00:36.514Z,9.08
2023-04-02T00:04:05.956Z,9.01
2023-04-02T00:07:33.339Z,8.91
2023-04-02T00:10:49.205Z,9.19
2023-04-02T00:13:55.465Z,9.02
2023-04-02T00:17:06.268Z,9.11
2023-04-02T00:20:20.205Z,9.22
2023-04-02T00:23:26.210Z,8.76
2023-04-02T00:26:37.925Z,9.06
2023-04-02T00:29:49.424Z,8.97
2023-04-02T00:32:56.188Z,8.83
2023-04-02T00:36:08.084Z,8.47
2023-04-02T00:39:19.700Z,8.41
2023-04-02T00:42:27.999Z,8.59
2023-04-02T00:45:38.057Z,8.45
2023-04-02T00:48:51.523Z,8.75
2023-04-02T00:52:01.860Z,8.31
2023-04-02T00:55:14.928Z,8.44
2023-04-02T00:58:27.480Z,8.36
2023-04-02T01:01:42.765Z,8.67
2023-04-02T01:04:54.728Z,8.55
2023-04-02T01:08:09.362Z,8.50
2023-04-02T01:11:33.370Z,8.69
2023-04-02T01:14:51.313Z,8.68
2023-04-02T01:18:31.507Z,8.79
2023-04-02T01:21:53.021Z,8.38
2023-04-02T01:24:59.759Z,8.22
2023-04-02T01:28:12.031Z,7.52
2023-04-02T01:31:20.242Z,7.50
2023-04-02T01:34:28.764Z,7.42
2023-04-02T01:37:45.088Z,7.54
2023-04-02T01:40:59.516Z,7.58
2023-04-02T01:44:09.429Z,7.33
2023-04-02T01:47:20.540Z,7.88
2023-04-02T01:50:32.283Z,8.69
2023-04-02T01:53:38.724Z,8.48
2023-04-02T01:56:45.840Z,8.64
2023-04-02T01:59:52.499Z,8.53
2023-04-02T02:03:02.414Z,8.44
2023-04-02T02:06:12.675Z,8.53
2023-04-02T02:09:24.248Z,8.61
2023-04-02T02:12:30.288Z,8.71
2023-04-02T02:15:37.752Z,8.67
2023-04-02T02:18:46.015Z,8.84
2023-04-02T02:21:54.514Z,8.91
2023-04-02T02:25:05.435Z,9.01
2023-04-02T02:28:15.422Z,9.19
2023-04-02T02:31:28.094Z,9.13
2023-04-02T02:34:41.738Z,9.35
2023-04-02T02:37:56.546Z,9.32
2023-04-02T02:41:08.969Z,9.17
2023-04-02T02:44:20.032Z,9.28
2023-04-02T02:47:29.473Z,9.40
2023-04-02T02:50:37.430Z,9.64
2023-04-02T02:53:50.908Z,9.36
2023-04-02T02:57:02.455Z,8.39
2023-04-02T03:00:13.166Z,7.66
2023-04-02T03:03:23.504Z,7.72
2023-04-02T03:06:31.486Z,7.65
2023-04-02T03:09:44.773Z,7.41
2023-04-02T03:12:57.769Z,7.46
2023-04-02T03:16:08.184Z,7.73
2023-04-02T03:19:27.724Z,7.67
2023-04-02T03:22:39.887Z,7.66
2023-04-02T03:25:53.681Z,7.81
2023-04-02T03:29:04.078Z,7.29
2023-04-02T03:32:18.342Z,7.96
2023-04-02T03:35:30.658Z,7.88
2023-04-02T03:38:44.908Z,7.84
2023-04-02T03:41:56.482Z,7.16
2023-04-02T03:45:08.890Z,7.76
2023-04-02T03:48:19.972Z,7.64
2023-04-02T03:51:31.850Z,7.45
2023-04-02T03:54:39.442Z,7.65
2023-04-02T03:57:53.945Z,8.11
2023-04-02T04:01:07.331Z,8.02
2023-04-02T04:04:19.141Z,8.13
2023-04-02T04:07:33.950Z,7.86
2023-04-02T04:10:44.209Z,7.77
2023-04-02T04:13:56.521Z,8.11
2023-04-02T04:17:13.980Z,7.98
2023-04-02T04:20:23.380Z,7.87
2023-04-02T04:23:32.898Z,7.97
2023-04-02T04:26:49.830Z,7.74
2023-04-02T04:30:05.552Z,7.60
2023-04-02T04:33:22.864Z,7.40
2023-04-02T04:36:33.806Z,7.67
2023-04-02T04:39:46.136Z,7.00
2023-04-02T04:42:58.176Z,7.13
2023-04-02T04:46:07.548Z,7.18
2023-04-02T04:49:20.162Z,7.16
2023-04-02T04:52:29.231Z,7.40
2023-04-02T04:55:40.937Z,7.47
2023-04-02T04:58:53.781Z,7.52
2023-04-02T05:02:06.269Z,7.59
2023-04-02T05:05:29.310Z,8.38
2023-04-02T05:08:40.398Z,8.81
2023-04-02T05:11:50.494Z,8.15
2023-04-02T05:15:01.828Z,8.47
2023-04-02T05:18:22.209Z,8.81
2023-04-02T05:21:35.338Z,8.63
2023-04-02T05:24:49.874Z,8.87
2023-04-02T05:28:01.431Z,9.12
2023-04-02T05:31:13.572Z,9.02
2023-04-02T05:34:26.208Z,8.74
2023-04-02T05:37:32.842Z,9.10
2023-04-02T05:40:45.251Z,9.19
2023-04-02T05:44:01.426Z,9.28
2023-04-02T05:47:15.653Z,9.06
2023-04-02T05:50:30.467Z,8.75
2023-04-02T05:53:41.267Z,8.85
2023-04-02T05:56:51.592Z,9.28
2023-04-02T06:00:01.455Z,9.21
2023-04-02T06:03:19.002Z,9.47
2023-04-02T06:06:34.931Z,9.43
2023-04-02T06:09:46.087Z,9.26
2023-04-02T06:12:58.224Z,9.26
2023-04-02T06:16:05.330Z,9.62
2023-04-02T06:19:20.704Z,9.61
2023-04-02T06:22:36.261Z,9.60
2023-04-02T06:25:47.175Z,9.42
2023-04-02T06:28:59.611Z,9.71
2023-04-02T06:32:08.677Z,10.00
2023-04-02T06:35:17.211Z,9.86
2023-04-02T06:38:28.159Z,10.03
2023-04-02T06:41:34.510Z,10.14
2023-04-02T06:44:41.269Z,10.20
2023-04-02T06:47:50.149Z,10.40
2023-04-02T06:51:03.376Z,10.43
2023-04-02T06:54:16.257Z,10.52
2023-04-02T06:57:22.856Z,10.36
2023-04-02T07:00:36.380Z,10.61
2023-04-02T07:03:43.151Z,10.83
2023-04-02T07:06:51.216Z,10.93
2023-04-02T07:09:57.789Z,11.16
2023-04-02T07:13:04.286Z,11.48
2023-04-02T07:16:15.298Z,11.95
2023-04-02T07:19:23.068Z,12.49
2023-04-02T07:22:30.544Z,12.89
2023-04-02T07:25:36.775Z,13.56
2023-04-02T07:28:43.512Z,12.73
2023-04-02T07:31:49.849Z,13.64
2023-04-02T07:34:55.908Z,14.44
2023-04-02T07:38:03.176Z,14.34
2023-04-02T07:41:10.051Z,14.19
2023-04-02T07:44:16.393Z,13.79
2023-04-02T07:47:22.829Z,13.70
2023-04-02T07:50:29.566Z,14.15
2023-04-02T07:53:38.888Z,14.72
2023-04-02T07:56:45.538Z,14.37
2023-04-02T07:59:52.138Z,14.41
2023-04-02T08:02:58.839Z,14.56
2023-04-02T08:06:05.305Z,14.96
2023-04-02T08:09:13.205Z,15.26
2023-04-02T08:12:19.640Z,15.71
2023-04-02T08:15:26.221Z,15.25
2023-04-02T08:18:32.819Z,14.32
2023-04-02T08:21:39.404Z,15.55
2023-04-02T08:24:47.187Z,15.65
2023-04-02T08:27:53.771Z,15.01
2023-04-02T08:31:00.347Z,15.60
2023-04-02T08:34:06.625Z,15.22
2023-04-02T08:37:14.302Z,15.72
2023-04-02T08:40:27.035Z,15.85
2023-04-02T08:43:54.009Z,15.64
2023-04-02T08:47:04.353Z,15.82
2023-04-02T08:50:21.049Z,16.05
2023-04-02T08:53:32.035Z,15.09
2023-04-02T08:56:44.725Z,16.11
2023-04-02T08:59:59.395Z,16.47
2023-04-02T09:03:12.038Z,17.39
2023-04-02T09:06:21.025Z,18.11
2023-04-02T09:09:28.304Z,17.04
2023-04-02T09:12:36.831Z,16.33
2023-04-02T09:15:42.808Z,16.75
2023-04-02T09:18:51.506Z,16.98
2023-04-02T09:22:06.973Z,17.06
2023-04-02T09:25:17.640Z,16.18
2023-04-02T09:28:25.766Z,17.33
2023-04-02T09:31:37.961Z,17.65
2023-04-02T09:34:44.299Z,18.22
2023-04-02T09:38:18.973Z,18.45
2023-04-02T09:41:30.068Z,17.87
2023-04-02T09:44:37.700Z,18.01
2023-04-02T09:47:44.585Z,18.03
2023-04-02T09:50:50.857Z,18.13
2023-04-02T09:54:10.318Z,17.77
2023-04-02T09:57:24.356Z,17.99
2023-04-02T10:00:41.526Z,18.45
2023-04-02T10:03:48.169Z,18.11
2023-04-02T10:06:58.390Z,17.53
2023-04-02T10:10:17.477Z,18.62
2023-04-02T10:13:28.994Z,18.29
2023-04-02T10:16:41.702Z,18.38
2023-04-02T10:19:52.481Z,18.73
2023-04-02T10:22:58.654Z,18.89
2023-04-02T10:26:23.070Z,18.30
2023-04-02T10:30:02.647Z,18.37
2023-04-02T10:33:19.639Z,18.17
2023-04-02T10:36:37.431Z,18.45
2023-04-02T10:39:50.347Z,18.05
2023-04-02T10:43:22.366Z,19.09
2023-04-02T10:46:37.385Z,19.30
2023-04-02T10:49:51.993Z,19.89
2023-04-02T10:53:07.528Z,18.46
2023-04-02T10:56:14.687Z,18.53
2023-04-02T10:59:25.554Z,18.92
2023-04-02T11:02:37.576Z,20.04
2023-04-02T11:05:48.692Z,18.27
2023-04-02T11:09:00.166Z,18.85
2023-04-02T11:12:07.921Z,18.64
2023-04-02T11:15:17.370Z,18.00
2023-04-02T11:18:26.291Z,18.40
2023-04-02T11:21:57.271Z,17.97
2023-04-02T11:25:06.123Z,18.79
2023-04-02T11:28:27.247Z,18.64
2023-04-02T11:31:34.478Z,18.90
2023-04-02T11:35:07.605Z,19.54
2023-04-02T11:38:53.013Z,18.78
2023-04-02T11:42:06.753Z,19.05
2023-04-02T11:45:53.344Z,18.14
2023-04-02T11:49:58.506Z,18.30
2023-04-02T11:53:06.892Z,16.86
2023-04-02T11:56:28.845Z,19.41
2023-04-02T11:59:41.470Z,19.14
2023-04-02T12:03:04.622Z,18.55
2023-04-02T12:06:19.524Z,18.48
2023-04-02T12:09:28.505Z,20.05
2023-04-02T12:12:39.945Z,19.17
2023-04-02T12:15:47.743Z,19.86
2023-04-02T12:18:55.266Z,19.50
2023-04-02T12:22:01.910Z,18.33
2023-04-02T12:25:24.728Z,18.59
2023-04-02T12:28:33.937Z,17.56
2023-04-02T12:31:44.408Z,17.75
2023-04-02T12:34:52.566Z,17.74
2023-04-02T12:38:01.229Z,17.99
2023-04-02T12:41:27.517Z,16.95
2023-04-02T12:44:34.972Z,17.56
2023-04-02T12:47:46.637Z,16.82
2023-04-02T12:50:53.532Z,17.67
2023-04-02T12:53:59.804Z,17.66
2023-04-02T12:57:23.418Z,17.57
2023-04-02T13:00:34.385Z,17.30
2023-04-02T13:03:41.188Z,17.66
2023-04-02T13:06:55.012Z,18.13
2023-04-02T13:10:02.930Z,18.63
2023-04-02T13:13:17.723Z,17.57
2023-04-02T13:16:35.711Z,17.79
2023-04-02T13:19:41.839Z,18.05
2023-04-02T13:22:48.055Z,17.78
2023-04-02T13:25:54.593Z,17.26
2023-04-02T13:29:02.761Z,16.64
2023-04-02T13:32:14.074Z,16.84
2023-04-02T13:35:20.116Z,16.64
2023-04-02T13:38:26.380Z,16.77
2023-04-02T13:41:35.284Z,16.82
2023-04-02T13:44:41.550Z,16.89
2023-04-02T13:47:48.866Z,17.42
2023-04-02T13:50:55.159Z,16.86
2023-04-02T13:54:01.285Z,17.48
2023-04-02T13:57:07.563Z,16.93
2023-04-02T14:00:15.019Z,17.55
2023-04-02T14:03:25.063Z,17.39
2023-04-02T14:06:49.651Z,17.11
2023-04-02T14:10:04.198Z,16.72
2023-04-02T14:13:25.181Z,17.06
2023-04-02T14:16:56.868Z,17.25
2023-04-02T14:20:23.299Z,16.95
2023-04-02T14:23:47.057Z,16.56
2023-04-02T14:27:04.793Z,16.19
2023-04-02T14:30:18.682Z,16.08
2023-04-02T14:33:36.373Z,16.20
2023-04-02T14:36:56.606Z,16.01
2023-04-02T14:40:15.258Z,16.40
2023-04-02T14:43:25.149Z,15.95
2023-04-02T14:46:35.527Z,16.25
2023-04-02T14:49:46.574Z,16.08
2023-04-02T14:52:58.187Z,15.89
2023-04-02T14:56:09.461Z,15.83
2023-04-02T14:59:26.946Z,15.63
2023-04-02T15:02:42.610Z,15.66
2023-04-02T15:05:51.155Z,15.38
2023-04-02T15:09:09.348Z,15.28
2023-04-02T15:12:23.208Z,15.70
2023-04-02T15:15:41.107Z,15.43
2023-04-02T15:18:47.888Z,15.70
2023-04-02T15:22:32.324Z,16.11
2023-04-02T15:25:48.749Z,15.68
2023-04-02T15:29:04.032Z,16.11
2023-04-02T15:32:25.158Z,15.89
2023-04-02T15:35:41.801Z,15.49
2023-04-02T15:38:53.470Z,15.35
2023-04-02T15:42:14.845Z,15.55
2023-04-02T15:45:30.617Z,15.84
2023-04-02T15:49:11.407Z,15.32
2023-04-02T15:52:26.819Z,15.10
2023-04-02T15:55:40.158Z,15.31
2023-04-02T15:59:20.602Z,15.37
2023-04-02T16:02:44.665Z,15.02
2023-04-02T16:06:10.828Z,14.61
2023-04-02T16:09:28.274Z,14.69
2023-04-02T16:12:36.217Z,14.31
2023-04-02T16:15:47.344Z,14.52
2023-04-02T16:19:00.326Z,14.52
2023-04-02T16:22:13.477Z,14.42
2023-04-02T16:25:23.009Z,14.30
2023-04-02T16:28:34.901Z,14.09
2023-04-02T16:31:51.525Z,13.64
2023-04-02T16:35:22.254Z,13.82
2023-04-02T16:38:45.304Z,13.67
2023-04-02T16:42:01.978Z,13.52
2023-04-02T16:45:25.775Z,13.35
2023-04-02T16:48:45.706Z,13.14
2023-04-02T16:52:04.107Z,13.20
2023-04-02T16:55:25.847Z,12.73
2023-04-02T16:58:44.827Z,12.51
2023-04-02T17:01:58.421Z,12.48
2023-04-02T17:05:18.318Z,12.43
2023-04-02T17:08:26.132Z,12.29
2023-04-02T17:11:41.522Z,12.05
2023-04-02T17:14:53.302Z,11.93
2023-04-02T17:18:01.909Z,11.91
2023-04-02T17:21:15.287Z,11.66
2023-04-02T17:24:26.347Z,11.76
2023-04-02T17:27:36.922Z,11.40
2023-04-02T17:30:47.617Z,11.49
2023-04-02T17:33:54.281Z,10.95
2023-04-02T17:37:13.258Z,11.24
2023-04-02T17:40:27.533Z,11.05
2023-04-02T17:43:44.890Z,10.97
2023-04-02T17:47:00.339Z,10.74
2023-04-02T17:50:29.516Z,10.73
2023-04-02T17:53:45.312Z,10.76
2023-04-02T17:57:08.100Z,10.38
2023-04-02T18:00:44.689Z,10.65
2023-04-02T18:04:08.474Z,10.47
2023-04-02T18:07:30.131Z,10.32
2023-04-02T18:10:47.973Z,10.28
2023-04-02T18:14:00.005Z,10.34
2023-04-02T18:17:12.048Z,10.33
2023-04-02T18:20:27.656Z,10.13
2023-04-02T18:23:45.159Z,10.32
2023-04-02T18:27:02.345Z,10.50
2023-04-02T18:30:19.218Z,10.01
2023-04-02T18:33:44.352Z,9.80
2023-04-02T18:37:06.255Z,9.56
2023-04-02T18:40:39.861Z,9.55
2023-04-02T18:43:59.992Z,9.97
2023-04-02T18:47:16.264Z,9.66
2023-04-02T18:50:29.436Z,9.41
2023-04-02T18:53:36.170Z,9.30
2023-04-02T18:56:44.067Z,9.28
2023-04-02T18:59:58.807Z,9.46
2023-04-02T19:03:12.380Z,8.85
2023-04-02T19:06:23.131Z,8.63
2023-04-02T19:09:34.021Z,8.80
2023-04-02T19:12:40.288Z,8.96
2023-04-02T19:16:11.126Z,8.87
2023-04-02T19:19:21.145Z,8.81
2023-04-02T19:22:38.646Z,8.71
2023-04-02T19:25:58.150Z,8.73
2023-04-02T19:29:17.465Z,8.87
2023-04-02T19:32:37.454Z,8.82
2023-04-02T19:35:49.003Z,8.80
2023-04-02T19:39:04.722Z,8.55
2023-04-02T19:42:20.441Z,8.44
2023-04-02T19:45:34.760Z,8.37
2023-04-02T19:48:49.063Z,8.40
2023-04-02T19:51:56.010Z,8.24
2023-04-02T19:55:02.116Z,8.21
2023-04-02T19:58:18.882Z,7.41
2023-04-02T20:01:25.806Z,7.07
2023-04-02T20:04:33.574Z,6.26
2023-04-02T20:07:40.372Z,6.88
2023-04-02T20:10:47.481Z,7.06
2023-04-02T20:13:53.975Z,6.78
2023-04-02T20:17:00.545Z,7.26
2023-04-02T20:20:10.815Z,7.47
2023-04-02T20:23:18.004Z,7.66
2023-04-02T20:26:24.173Z,8.00
2023-04-02T20:29:32.400Z,7.63
2023-04-02T20:32:38.978Z,7.53
2023-04-02T20:35:46.808Z,7.36
2023-04-02T20:38:53.735Z,7.34
2023-04-02T20:42:02.966Z,6.88
2023-04-02T20:45:10.817Z,7.43
2023-04-02T20:48:17.093Z,7.13
2023-04-02T20:51:24.552Z,7.20
2023-04-02T20:54:31.107Z,7.13
2023-04-02T20:57:37.566Z,7.28
2023-04-02T21:00:43.824Z,7.50
2023-04-02T21:03:51.074Z,7.39
2023-04-02T21:06:58.893Z,6.77
2023-04-02T21:10:05.937Z,6.22
2023-04-02T21:13:12.134Z,6.08
2023-04-02T21:16:20.573Z,5.80
2023-04-02T21:19:27.754Z,6.14
2023-04-02T21:22:35.939Z,6.24
2023-04-02T21:25:42.300Z,5.84
2023-04-02T21:28:48.580Z,5.81
2023-04-02T21:31:54.984Z,5.81
2023-04-02T21:35:01.035Z,6.56
2023-04-02T21:38:08.793Z,6.79
2023-04-02T21:41:17.064Z,6.70
2023-04-02T21:44:24.744Z,6.71
2023-04-02T21:47:31.216Z,6.69
2023-04-02T21:50:37.487Z,6.70
2023-04-02T21:53:46.394Z,6.70
2023-04-02T21:56:52.663Z,6.72
2023-04-02T21:59:59.696Z,6.93
2023-04-02T22:03:06.403Z,6.66
2023-04-02T22:06:15.197Z,6.50
2023-04-02T22:09:24.927Z,6.56
2023-04-02T22:12:31.267Z,6.19
2023-04-02T22:15:37.505Z,6.39
2023-04-02T22:18:44.623Z,5.81
2023-04-02T22:21:50.849Z,5.04
2023-04-02T22:25:00.388Z,4.70
2023-04-02T22:28:06.991Z,5.20
2023-04-02T22:31:15.721Z,5.76
2023-04-02T22:34:22.330Z,6.19
2023-04-02T22:37:29.140Z,5.93
2023-04-02T22:40:37.359Z,4.99
2023-04-02T22:43:46.874Z,4.31
2023-04-02T22:46:52.954Z,4.86
2023-04-02T22:49:59.352Z,5.60
2023-04-02T22:53:05.575Z,5.88
2023-04-02T22:56:14.823Z,5.91
2023-04-02T22:59:20.803Z,5.77
2023-04-02T23:02:27.609Z,5.52
2023-04-02T23:05:33.919Z,5.48
2023-04-02T23:08:40.888Z,4.91
2023-04-02T23:11:48.426Z,5.16
2023-04-02T23:14:57.220Z,5.46
2023-04-02T23:18:03.769Z,4.82
2023-04-02T23:21:10.678Z,4.95
2023-04-02T23:24:17.370Z,5.03
2023-04-02T23:27:25.182Z,5.47
2023-04-02T23:30:31.322Z,5.67
2023-04-02T23:33:37.621Z,5.92
2023-04-02T23:36:44.065Z,5.61
2023-04-02T23:39:50.554Z,5.51
2023-04-02T23:42:58.494Z,5.76
2023-04-02T23:46:04.857Z,5.02
2023-04-02T23:49:13.045Z,5.14
2023-04-02T23:52:19.234Z,5.29
2023-04-02T23:55:25.453Z,4.84
2023-04-02T23:58:33.435Z,3.84
